Historique des mesures à Cassis (13260), France
Quotidien Résumé Mars 26, 2021 Unités:  Métrique/US    US   Métrique
Quotidien Hebdomadaire Mensuel Annuel
  Maximum: Minimum: Moyenne:
Température: 91 °F /  32.8 °C 72.1 °F /  22.3 °C 81.1 °F /  27.3 °C
Point de rosée: 66.2 °F /  19 °C 56.5 °F /  13.6 °C 59.5 °F /  15.3 °C
Humidité: 61% 37% 49%
Vitesse du vent: 18.3mph /  29.5km/h - 5mph /  8km/h
Rafales: 21.2mph /  34.2km/h - -
Vent- - West
Pression: 29.8 in /  1010.6 hPa 29.7 in /  1006.0 hPa -
Précipitations: 0 in /  0.0 mm    
Historical Graphs
 
 
Mesures pour : Mars 26, 2021
Heure Temperature Point de rosée Pression Vent Vitesse du vent Rafales Humidité Pluie (par heure)
00:11 75.9 °F /  24.4 °C 59.5 °F /  15.3 °C 29.7in /  1006.6hPa NNW 1.4mph /  2.2km/h 9.2mph /  14.8km/h 57% 0in /  0.0mm
01:11 77.2 °F /  25.1 °C 58.6 °F /  14.8 °C 29.7in /  1006.4hPa WNW 2.9mph /  4.7km/h 10.5mph /  16.9km/h 53% 0in /  0.0mm
02:11 77.7 °F /  25.4 °C 57 °F /  13.9 °C 29.7in /  1006.0hPa West 3.8mph /  6.1km/h 13.7mph /  22km/h 49% 0in /  0.0mm
03:11 75.9 °F /  24.4 °C 57.6 °F /  14.2 °C 29.7in /  1006.1hPa WNW 1.8mph /  2.9km/h 3.1mph /  5km/h 53% 0in /  0.0mm
04:11 73.9 °F /  23.3 °C 56.7 °F /  13.7 °C 29.7in /  1006.4hPa NW 2.7mph /  4.3km/h 4mph /  6.5km/h 55% 0in /  0.0mm
05:11 73.2 °F /  22.9 °C 56.5 °F /  13.6 °C 29.7in /  1006.4hPa Calm   3.6mph /  5.8km/h 56% 0in /  0.0mm
06:11 72.1 °F /  22.3 °C 56.5 °F /  13.6 °C 29.7in /  1006.9hPa NW 0.7mph /  1.1km/h 5.8mph /  9.4km/h 58% 0in /  0.0mm
07:11 72.3 °F /  22.4 °C 58.1 °F /  14.5 °C 29.8in /  1007.5hPa Calm   3.1mph /  5km/h 61% 0in /  0.0mm
08:11 86.7 °F /  30.4 °C 64 °F /  17.8 °C 29.8in /  1007.7hPa Calm   2.7mph /  4.3km/h 47% 0in /  0.0mm
09:11 81.3 °F /  27.4 °C 63 °F /  17.2 °C 29.8in /  1008.1hPa Calm   2.9mph /  4.7km/h 54% 0in /  0.0mm
10:11 80.8 °F /  27.1 °C 65.7 °F /  18.7 °C 29.8in /  1008.5hPa WNW 0.7mph /  1.1km/h 2.5mph /  4km/h 60% 0in /  0.0mm
11:11 86.4 °F /  30.2 °C 65.7 °F /  18.7 °C 29.8in /  1008.5hPa ESE 2.2mph /  3.6km/h 6.5mph /  10.4km/h 50% 0in /  0.0mm
12:11 90.5 °F /  32.5 °C 66.2 °F /  19 °C 29.8in /  1008.5hPa ESE 1.4mph /  2.2km/h 6.7mph /  10.8km/h 45% 0in /  0.0mm
13:11 91 °F /  32.8 °C 61 °F /  16.1 °C 29.8in /  1008.4hPa WNW 12.3mph /  19.8km/h 17.2mph /  27.7km/h 37% 0in /  0.0mm
14:11 88.3 °F /  31.3 °C 58.6 °F /  14.8 °C 29.8in /  1008.7hPa WNW 14.5mph /  23.4km/h 16.8mph /  27km/h 37% 0in /  0.0mm
15:11 86.5 °F /  30.3 °C 57.9 °F /  14.4 °C 29.8in /  1008.6hPa West 9.6mph /  15.5km/h 21.2mph /  34.2km/h 38% 0in /  0.0mm
16:11 87.1 °F /  30.6 °C 58.3 °F /  14.6 °C 29.8in /  1008.5hPa West 14.5mph /  23.4km/h 19.9mph /  32km/h 38% 0in /  0.0mm
17:11 86.9 °F /  30.5 °C 59.9 °F /  15.5 °C 29.8in /  1008.6hPa NW 18.3mph /  29.5km/h 19.3mph /  31km/h 40% 0in /  0.0mm
18:11 83.7 °F /  28.7 °C 58.1 °F /  14.5 °C 29.8in /  1008.4hPa WSW 12.3mph /  19.8km/h 21mph /  33.8km/h 42% 0in /  0.0mm
19:11 82.2 °F /  27.9 °C 58.1 °F /  14.5 °C 29.8in /  1008.6hPa West 6.7mph /  10.8km/h 20.6mph /  33.1km/h 44% 0in /  0.0mm
20:11 80.4 °F /  26.9 °C 58.3 °F /  14.6 °C 29.8in /  1008.8hPa WNW 8.1mph /  13km/h 20.1mph /  32.4km/h 47% 0in /  0.0mm
21:11 79.7 °F /  26.5 °C 57.6 °F /  14.2 °C 29.8in /  1009.5hPa NW 3.4mph /  5.4km/h 6.5mph /  10.4km/h 47% 0in /  0.0mm
22:11 79.5 °F /  26.4 °C 58.1 °F /  14.5 °C 29.8in /  1010.0hPa NNW 2mph /  3.2km/h 3.8mph /  6.1km/h 48% 0in /  0.0mm
23:11 79.2 °F /  26.2 °C 58.3 °F /  14.6 °C 29.8in /  1010.6hPa Calm   2.2mph /  3.6km/h 49% 0in /  0.0mm
Observations météo à CASSIS
WU-History script by Weather Underground - 2 mb